Iliamna Airport Iliamna US
ICAO: PAIL
IATA:
Category: Medium
Scheduled Services:

Elevation: 192 ft
TransAlt. 18000 ft.

Airport Communications:
ASOS:134.95
ATIS:134.95
ANCHORAGE CNTR:118.8
CTAF:123.6
RDO:123.6
KENAI RDO:121.2
KENAI RDO:122.2

PAIL Zoom In..

Runways:

(A) RW 07 length 5086 ft width 100 ft
---- / hdg 76

(B) RW 17 length 4800 ft width 100 ft
---- / hdg 172

(C) RW 25 length 5086 ft width 100 ft
---- / hdg 256

(D) RW 35 length 4800 ft width 100 ft
---- / hdg 352

Location; PAIL
Day. 16 / Time. 17.53 Zulu
* Altimeter: 30.01
* Temperature: 10° c. 50°f.
* Wind from: 240° Speed 09 kn.
Dewpoint: 10° c.
Visibility: 8 Statute Miles.
Clouds: Overcast 600 ft.
Conditions: Light Rain.

PAIL 161753Z 24009KT 8SM -RA OVC006 10/10 A3001 RMK AO2 SLP162 P0000 60001 T01000100 10117 20100 53015


Wind From 240°
Speed 09 kn.

 
 
jpsmedia.com for Web Design worldairports.se 2018   terms of use